Ru Kontio — OIRV — position and weather

sailwx.info

Track history (hours):
 
Tides and Currents Weather Stations Pressure Air Temp Water Temp Dewpoint Dewpoint Depression Visibility Wind Speed Wind Dir Waves Ship Positions

Ru Kontio

Last reported at 2017-May-02 01:57 UTC. Time now 2017-May-28 12:33 UTC.
Position N 59°48' E 024°16'.
Warning: this ship's position is 26 days out of date.

Type: Other ship. MMSI: 230251000.

Date/timePositionNaut miles runAvg speedWind from/ knotsBaromVisibWave heightAir tempDewpointWater temp
2017-May-02 01:57N 59°48' E 024°16'613.1
2017-May-02 01:30N 59°47' E 024°05'713.1
2017-May-02 01:00N 59°45' E 023°53'612.7
2017-May-02 00:30N 59°44' E 023°40'612.6
2017-May-02 00:00N 59°42' E 023°28'612.7
2017-May-01 23:30N 59°40' E 023°16'612.8
2017-May-01 23:00N 59°39' E 023°04'612.7
2017-May-01 22:31N 59°37' E 022°52'612.8
2017-May-01 22:00N 59°36' E 022°40'1812.9
2017-May-01 20:37N 59°33' E 022°05'212.9
2017-May-01 20:29N 59°33' E 022°02'612.6
2017-May-01 20:00N 59°32' E 021°50'612.0
2017-May-01 19:30N 59°32' E 021°38'612.5
2017-May-01 18:59N 59°36' E 021°28'612.9
2017-May-01 18:30N 59°41' E 021°21'612.4
2017-May-01 18:00N 59°47' E 021°21'611.5
2017-May-01 17:30N 59°52' E 021°28'611.9
2017-May-01 17:00N 59°55' E 021°38'611.3
2017-May-01 16:30N 60°00' E 021°42'  
Track history (hours):
 
Tides and Currents Weather Stations Pressure Air Temp Water Temp Dewpoint Dewpoint Depression Visibility Wind Speed Wind Dir Waves Ship Positions

Ru Kontio

Last reported at 2017-May-02 01:57 UTC. Time now 2017-May-28 12:33 UTC.
Position N 59°48' E 024°16'.
Warning: this ship's position is 26 days out of date.

Type: Other ship. MMSI: 230251000.

Date/timePositionNaut miles runAvg speedWind from/ knotsBaromVisibWave heightAir tempDewpointWater temp
2017-May-02 01:57N 59°48' E 024°16'613.1
2017-May-02 01:30N 59°47' E 024°05'713.1
2017-May-02 01:00N 59°45' E 023°53'612.7
2017-May-02 00:30N 59°44' E 023°40'612.6
2017-May-02 00:00N 59°42' E 023°28'612.7
2017-May-01 23:30N 59°40' E 023°16'612.8
2017-May-01 23:00N 59°39' E 023°04'612.7
2017-May-01 22:31N 59°37' E 022°52'612.8
2017-May-01 22:00N 59°36' E 022°40'1812.9
2017-May-01 20:37N 59°33' E 022°05'212.9
2017-May-01 20:29N 59°33' E 022°02'612.6
2017-May-01 20:00N 59°32' E 021°50'612.0
2017-May-01 19:30N 59°32' E 021°38'612.5
2017-May-01 18:59N 59°36' E 021°28'612.9
2017-May-01 18:30N 59°41' E 021°21'612.4
2017-May-01 18:00N 59°47' E 021°21'611.5
2017-May-01 17:30N 59°52' E 021°28'611.9
2017-May-01 17:00N 59°55' E 021°38'611.3
2017-May-01 16:30N 60°00' E 021°42'  

Dump ship's entire track history